tititudorancea.com
Station Historical Data
 
Daily Summary for December 10, 2016 Units:  Metric    English   Both
« Previous Day
Next Day »
Daily Weekly Monthly Yearly Custom
  Current: High: Low: Average:
Temperature: 20.9 °C 21.1 °C 10 °C 13.2 °C
Dew Point: 11.1 °C 11.5 °C 6.7 °C 8.3 °C
Humidity: 53 % 87 % 53 % 73 %
Wind Speed: 0 km/h 0 km/h 0 km/h 0 km/h
Wind Gust: 0 km/h 6.1 km/h - -
Wind:Calm - - North
Pressure: 1028.3 hPa 1031 hPa 1028.3 hPa -
Precipitation: 0 mm      
Historical Graphs
 
 
Ararat weather Find more about Weather in Ararat, AU


 



 


Tabular Data for December 10, 2016
Time Temperature Dew Point Pressure Wind Wind Speed Wind Gust Humidity Rainfall Rate (Hourly)
00:01 10.6 °C 7.8 °C 1029.3 hPa Calm     83 % 0 mm
00:06 10.6 °C 7.4 °C 1029 hPa Calm     81 % 0 mm
00:11 10.6 °C 7.3 °C 1029 hPa Calm     80 % 0 mm
00:16 10.6 °C 7.1 °C 1029.3 hPa Calm     79 % 0 mm
00:21 10.6 °C 7.1 °C 1029.3 hPa Calm     79 % 0 mm
00:26 10.6 °C 7.1 °C 1029.3 hPa Calm     79 % 0 mm
00:31 10.5 °C 7 °C 1029.3 hPa Calm   1.1 km/h 79 % 0 mm
00:36 10.5 °C 6.8 °C 1029.3 hPa Calm   1.1 km/h 78 % 0 mm
00:41 10.4 °C 6.9 °C 1029.3 hPa Calm     79 % 0 mm
00:46 10.4 °C 6.9 °C 1029.3 hPa Calm     79 % 0 mm
00:51 10.4 °C 7.1 °C 1029 hPa Calm     80 % 0 mm
00:56 10.4 °C 7.1 °C 1029 hPa Calm     80 % 0 mm
01:01 10.4 °C 7.1 °C 1029 hPa Calm     80 % 0 mm
01:06 10.3 °C 7 °C 1029 hPa Calm     80 % 0 mm
01:11 10.3 °C 7 °C 1029 hPa Calm     80 % 0 mm
01:16 10.3 °C 6.8 °C 1028.7 hPa Calm     79 % 0 mm
01:21 10.4 °C 7.1 °C 1028.7 hPa Calm     80 % 0 mm
01:26 10.4 °C 7.1 °C 1029 hPa Calm     80 % 0 mm
01:31 10.4 °C 7.1 °C 1028.7 hPa Calm     80 % 0 mm
01:36 10.4 °C 7.1 °C 1028.7 hPa Calm     80 % 0 mm
01:41 10.4 °C 7.1 °C 1028.7 hPa Calm     80 % 0 mm
01:46 10.4 °C 7.1 °C 1028.7 hPa Calm     80 % 0 mm
01:51 10.4 °C 7.3 °C 1028.7 hPa Calm     81 % 0 mm
01:56 10.4 °C 7.4 °C 1028.7 hPa Calm     82 % 0 mm
02:01 10.4 °C 7.4 °C 1028.7 hPa Calm     82 % 0 mm
02:06 10.4 °C 7.4 °C 1028.7 hPa Calm     82 % 0 mm
02:11 10.4 °C 7.6 °C 1028.7 hPa Calm   1.1 km/h 83 % 0 mm
02:16 10.4 °C 7.3 °C 1028.7 hPa Calm   6.1 km/h 81 % 0 mm
02:21 10.4 °C 7.3 °C 1028.7 hPa Calm   6.1 km/h 81 % 0 mm
02:26 10.4 °C 7.4 °C 1028.7 hPa Calm     82 % 0 mm
02:31 10.4 °C 7.8 °C 1028.7 hPa Calm     84 % 0 mm
02:37 10.4 °C 8 °C 1028.7 hPa Calm     85 % 0 mm
02:42 10.3 °C 7.9 °C 1028.7 hPa Calm     85 % 0 mm
02:47 10.3 °C 8.1 °C 1028.7 hPa Calm     86 % 0 mm
02:52 10.3 °C 8.1 °C 1028.3 hPa Calm     86 % 0 mm
02:57 10.3 °C 8.2 °C 1028.3 hPa Calm     87 % 0 mm
03:02 10.2 °C 8.1 °C 1028.3 hPa Calm     87 % 0 mm
03:07 10.2 °C 8.1 °C 1028.3 hPa Calm     87 % 0 mm
03:12 10.2 °C 8.1 °C 1028.3 hPa Calm     87 % 0 mm
03:17 10.2 °C 8.1 °C 1028.3 hPa Calm     87 % 0 mm
03:22 10.1 °C 7.2 °C 1028.7 hPa Calm     82 % 0 mm
03:27 10.1 °C 7 °C 1028.7 hPa Calm     81 % 0 mm
03:32 10.1 °C 7 °C 1028.3 hPa Calm     81 % 0 mm
03:37 10.1 °C 7 °C 1028.3 hPa Calm     81 % 0 mm
03:42 10.2 °C 7.3 °C 1028.7 hPa Calm     82 % 0 mm
03:47 10.2 °C 7.3 °C 1028.3 hPa Calm     82 % 0 mm
03:52 10.2 °C 7.3 °C 1028.7 hPa Calm     82 % 0 mm
03:57 10.2 °C 7.3 °C 1028.3 hPa Calm     82 % 0 mm
04:02 10.1 °C 7.3 °C 1028.7 hPa Calm     83 % 0 mm
04:07 10.2 °C 7.4 °C 1028.7 hPa Calm     83 % 0 mm
04:12 10.2 °C 7.4 °C 1028.3 hPa Calm   1.1 km/h 83 % 0 mm
04:17 10.1 °C 7.5 °C 1028.3 hPa Calm   1.1 km/h 84 % 0 mm
04:22 10.1 °C 7.5 °C 1028.3 hPa Calm     84 % 0 mm
04:27 10.1 °C 7.7 °C 1028.3 hPa Calm     85 % 0 mm
04:32 10.1 °C 7.8 °C 1028.3 hPa Calm     86 % 0 mm
04:37 10.1 °C 7.8 °C 1028.3 hPa Calm     86 % 0 mm
04:42 10.1 °C 7.7 °C 1028.3 hPa Calm     85 % 0 mm
04:47 10.1 °C 7.7 °C 1028.3 hPa Calm     85 % 0 mm
04:52 10.1 °C 7.5 °C 1028.3 hPa Calm     84 % 0 mm
04:57 10 °C 7.4 °C 1028.3 hPa Calm     84 % 0 mm
05:02 10 °C 7.4 °C 1028.3 hPa Calm     84 % 0 mm
05:07 10.1 °C 7.5 °C 1028.3 hPa Calm     84 % 0 mm
05:12 10 °C 7.4 °C 1028.3 hPa Calm     84 % 0 mm
05:17 10 °C 7.4 °C 1028.7 hPa Calm     84 % 0 mm
05:22 10 °C 7.2 °C 1028.7 hPa Calm     83 % 0 mm
05:27 10 °C 7.2 °C 1028.3 hPa Calm     83 % 0 mm
05:32 10 °C 7.1 °C 1028.7 hPa Calm     82 % 0 mm
05:37 10 °C 7.1 °C 1028.7 hPa Calm     82 % 0 mm
05:42 10 °C 6.9 °C 1028.7 hPa Calm     81 % 0 mm
05:47 10 °C 6.9 °C 1029 hPa Calm     81 % 0 mm
05:52 10 °C 6.9 °C 1029 hPa Calm     81 % 0 mm
05:57 10 °C 6.9 °C 1029 hPa Calm     81 % 0 mm
06:02 10 °C 6.9 °C 1029 hPa Calm     81 % 0 mm
06:07 10 °C 6.9 °C 1029.3 hPa Calm     81 % 0 mm
06:12 10 °C 6.9 °C 1029 hPa Calm     81 % 0 mm
06:17 10 °C 6.9 °C 1029.3 hPa Calm     81 % 0 mm
06:22 10 °C 6.9 °C 1029.7 hPa Calm     81 % 0 mm
06:27 10 °C 6.9 °C 1029.7 hPa Calm     81 % 0 mm
06:32 10 °C 6.7 °C 1029.3 hPa Calm     80 % 0 mm
06:37 10 °C 6.9 °C 1029.7 hPa Calm     81 % 0 mm
06:42 10.1 °C 7 °C 1029.7 hPa Calm     81 % 0 mm
06:47 10.1 °C 7 °C 1029.7 hPa Calm     81 % 0 mm
06:52 10.1 °C 7 °C 1029.7 hPa Calm     81 % 0 mm
06:57 10.1 °C 7 °C 1029.7 hPa Calm     81 % 0 mm
07:03 10.1 °C 6.8 °C 1030 hPa Calm     80 % 0 mm
07:08 10.2 °C 7.1 °C 1029.7 hPa Calm     81 % 0 mm
07:13 10.3 °C 7 °C 1030 hPa Calm     80 % 0 mm
07:18 10.3 °C 7 °C 1029.7 hPa Calm     80 % 0 mm
07:23 10.4 °C 7.3 °C 1030 hPa Calm     81 % 0 mm
07:28 10.4 °C 7.1 °C 1029.7 hPa Calm     80 % 0 mm
07:33 10.5 °C 7.2 °C 1030 hPa Calm     80 % 0 mm
07:38 10.5 °C 7.2 °C 1030 hPa Calm     80 % 0 mm
07:43 10.6 °C 7.3 °C 1030 hPa Calm   2.6 km/h 80 % 0 mm
07:48 10.7 °C 7.2 °C 1030 hPa Calm   2.6 km/h 79 % 0 mm
07:53 10.7 °C 7.2 °C 1030 hPa Calm   2.6 km/h 79 % 0 mm
07:58 10.8 °C 7.3 °C 1030 hPa Calm     79 % 0 mm
08:03 10.9 °C 7.4 °C 1030.4 hPa Calm     79 % 0 mm
08:08 11 °C 7.3 °C 1030.4 hPa Calm     78 % 0 mm
08:13 11.1 °C 7.4 °C 1030.4 hPa Calm     78 % 0 mm
08:18 11.2 °C 7.5 °C 1030 hPa Calm     78 % 0 mm
08:23 11.3 °C 7.4 °C 1030 hPa Calm   1.1 km/h 77 % 0 mm
08:28 11.2 °C 7.1 °C 1030.4 hPa Calm   1.1 km/h 76 % 0 mm
08:33 11.4 °C 7.5 °C 1030.4 hPa Calm   1.1 km/h 77 % 0 mm
08:38 11.4 °C 7.4 °C 1030 hPa Calm     76 % 0 mm
08:43 11.7 °C 7.4 °C 1030.4 hPa Calm     75 % 0 mm
08:48 11.8 °C 7.5 °C 1030.4 hPa Calm     75 % 0 mm
08:53 11.8 °C 7.5 °C 1030.4 hPa Calm     75 % 0 mm
08:58 12.1 °C 7.8 °C 1030.4 hPa Calm     75 % 0 mm
09:03 12.2 °C 7.4 °C 1030.4 hPa Calm     73 % 0 mm
09:08 12.2 °C 7.7 °C 1030.7 hPa Calm   1.1 km/h 74 % 0 mm
09:13 12.2 °C 7.8 °C 1030.7 hPa Calm   1.1 km/h 74 % 0 mm
09:18 12.3 °C 7.8 °C 1030.7 hPa Calm   1.1 km/h 74 % 0 mm
09:23 12.3 °C 7.7 °C 1030.7 hPa Calm   1.1 km/h 73 % 0 mm
09:28 12.4 °C 7.9 °C 1030.7 hPa Calm     74 % 0 mm
09:33 12.6 °C 7.8 °C 1031 hPa Calm     73 % 0 mm
09:38 12.7 °C 8.2 °C 1030.7 hPa Calm   1.1 km/h 74 % 0 mm
09:43 13.1 °C 8.2 °C 1030.7 hPa Calm   1.1 km/h 72 % 0 mm
09:48 13.2 °C 8.3 °C 1030.7 hPa Calm   1.1 km/h 72 % 0 mm
09:53 13.3 °C 8.4 °C 1030.7 hPa Calm   1.1 km/h 72 % 0 mm
09:58 13.4 °C 8.3 °C 1031 hPa Calm   1.1 km/h 71 % 0 mm
10:03 13.5 °C 8.4 °C 1030.4 hPa Calm     71 % 0 mm
10:08 13.5 °C 8.4 °C 1030.4 hPa Calm   1.1 km/h 71 % 0 mm
10:13 13.6 °C 8.4 °C 1030.7 hPa Calm   1.1 km/h 71 % 0 mm
10:18 13.7 °C 8.3 °C 1030.7 hPa Calm   1.1 km/h 70 % 0 mm
10:23 13.8 °C 8.4 °C 1030.7 hPa Calm   1.1 km/h 70 % 0 mm
10:28 14.2 °C 8.8 °C 1030.7 hPa Calm     70 % 0 mm
10:33 14.7 °C 8.8 °C 1030.7 hPa Calm     68 % 0 mm
10:38 14.9 °C 9.3 °C 1030.7 hPa Calm   1.1 km/h 69 % 0 mm
10:43 15.3 °C 9.4 °C 1030.7 hPa Calm   1.1 km/h 68 % 0 mm
10:48 15.3 °C 9 °C 1030.7 hPa Calm     66 % 0 mm
10:53 15.3 °C 9.2 °C 1030.7 hPa Calm     67 % 0 mm
10:58 15.5 °C 9.4 °C 1030.7 hPa Calm     67 % 0 mm
11:03 15.5 °C 9.2 °C 1031 hPa Calm     66 % 0 mm
11:08 15.7 °C 9.6 °C 1031 hPa Calm     67 % 0 mm
11:19 15.8 °C 9.2 °C 1031 hPa Calm   1.1 km/h 65 % 0 mm
11:24 15.8 °C 9 °C 1030.7 hPa Calm   1.1 km/h 64 % 0 mm
11:29 15.7 °C 8.9 °C 1030.7 hPa Calm   1.1 km/h 64 % 0 mm
11:34 16 °C 9.2 °C 1030.7 hPa Calm   1.1 km/h 64 % 0 mm
11:39 16.4 °C 9.3 °C 1030.7 hPa Calm   1.1 km/h 63 % 0 mm
11:44 16.2 °C 9.1 °C 1030.7 hPa Calm   1.1 km/h 63 % 0 mm
11:49 16.6 °C 9.7 °C 1030.4 hPa Calm     64 % 0 mm
11:54 16.8 °C 9.4 °C 1030.7 hPa Calm     62 % 0 mm
11:59 16.6 °C 9.5 °C 1030.4 hPa Calm     63 % 0 mm
12:04 17.2 °C 9.8 °C 1030.7 hPa Calm     62 % 0 mm
12:09 16.8 °C 9.6 °C 1030.4 hPa Calm     62 % 0 mm
12:14 17.1 °C 9.7 °C 1030.4 hPa Calm     62 % 0 mm
12:19 17.1 °C 9.2 °C 1030.4 hPa Calm     60 % 0 mm
12:24 16.8 °C 9.6 °C 1030.7 hPa Calm     62 % 0 mm
12:29 16.4 °C 9.7 °C 1030.4 hPa Calm     64 % 0 mm
12:34 16.7 °C 9.3 °C 1030.4 hPa Calm     62 % 0 mm
12:39 17.3 °C 9.8 °C 1030.7 hPa Calm     61 % 0 mm
12:44 17.2 °C 9.6 °C 1030.4 hPa Calm     61 % 0 mm
12:49 17.7 °C 10.3 °C 1030.4 hPa Calm     62 % 0 mm
12:54 18.2 °C 10.1 °C 1030.7 hPa Calm   1.1 km/h 59 % 0 mm
12:59 18.6 °C 10.2 °C 1030 hPa Calm   1.1 km/h 58 % 0 mm
13:04 18.4 °C 10 °C 1030.4 hPa Calm   1.1 km/h 58 % 0 mm
13:09 17.8 °C 10 °C 1030.4 hPa Calm     60 % 0 mm
13:14 18.1 °C 10.4 °C 1030.4 hPa Calm     61 % 0 mm
13:19 18.1 °C 9.9 °C 1030.4 hPa Calm     59 % 0 mm
13:24 18.1 °C 10.3 °C 1030 hPa Calm     60 % 0 mm
13:29 18.3 °C 10.2 °C 1030 hPa Calm     59 % 0 mm
13:34 18.2 °C 10.6 °C 1030 hPa Calm     61 % 0 mm
13:39 18.6 °C 10.7 °C 1030 hPa Calm     60 % 0 mm
13:44 18.6 °C 10.4 °C 1030 hPa Calm     59 % 0 mm
13:49 18.4 °C 10.3 °C 1029.7 hPa Calm     59 % 0 mm
13:54 18.3 °C 10.2 °C 1029.7 hPa Calm     59 % 0 mm
13:59 18.2 °C 10.1 °C 1029.7 hPa Calm     59 % 0 mm
14:05 18.3 °C 10.2 °C 1029.7 hPa Calm     59 % 0 mm
14:10 18.6 °C 10.4 °C 1029.7 hPa Calm     59 % 0 mm
14:15 19 °C 10.6 °C 1029.7 hPa Calm     58 % 0 mm
14:20 19.3 °C 10.6 °C 1029.7 hPa Calm     57 % 0 mm
14:25 19.4 °C 10.7 °C 1029.3 hPa Calm     57 % 0 mm
14:30 19.6 °C 11.4 °C 1029.3 hPa Calm     59 % 0 mm
14:35 19.8 °C 10.8 °C 1029 hPa Calm     56 % 0 mm
14:40 19.8 °C 11.1 °C 1029 hPa Calm     57 % 0 mm
14:45 20 °C 11.2 °C 1029 hPa Calm     57 % 0 mm
14:50 19.8 °C 11.1 °C 1029 hPa Calm     57 % 0 mm
14:55 19.7 °C 10.9 °C 1029 hPa Calm     57 % 0 mm
15:00 19.9 °C 10.9 °C 1028.7 hPa Calm     56 % 0 mm
15:05 20.1 °C 11.1 °C 1028.7 hPa Calm     56 % 0 mm
15:10 20.3 °C 10.9 °C 1028.7 hPa Calm     55 % 0 mm
15:15 20.3 °C 10.9 °C 1028.7 hPa Calm     55 % 0 mm
15:20 20.7 °C 11.1 °C 1028.7 hPa Calm     54 % 0 mm
15:25 20.5 °C 11.4 °C 1028.7 hPa Calm     56 % 0 mm
15:30 20.4 °C 11.3 °C 1028.7 hPa Calm     56 % 0 mm
15:35 20.9 °C 11.5 °C 1028.7 hPa Calm     55 % 0 mm
15:40 21.1 °C 11.4 °C 1028.3 hPa Calm     54 % 0 mm
15:45 21.1 °C 11.4 °C 1028.7 hPa Calm     54 % 0 mm
15:50 20.9 °C 11.1 °C 1028.3 hPa Calm     53 % 0 mm
Ararat Weather
Compliments of Weather Underground - 1.5 mb
Click here to send mail.


ABOUT

Live weather data from Ararat, Victoria, Australia, 3377
Data uploaded from Cumulus every 5 minutes to Weather Underground.
This site then downloads the raw data for formatting and display.
Metric and imperial data can be displayed. Graphs and historical data available.
Includes Sun and Moon times and rain image live from BOM.

Check out Ararat Weather on Facebook, Twitter and Google +

Help support ongoing costs by checking out the ads





Follow @AraratWeather